createdAt,value
2022-12-29T00:01:50.713Z,97.40
2022-12-29T00:04:18.970Z,97.40
2022-12-29T00:06:47.279Z,97.40
2022-12-29T00:09:18.210Z,97.40
2022-12-29T00:11:46.337Z,97.40
2022-12-29T00:14:33.649Z,97.40
2022-12-29T00:17:01.904Z,97.40
2022-12-29T00:19:48.003Z,97.40
2022-12-29T00:22:34.647Z,97.40
2022-12-29T00:25:21.183Z,97.40
2022-12-29T00:28:07.568Z,97.40
2022-12-29T00:30:56.155Z,97.40
2022-12-29T00:33:48.020Z,97.40
2022-12-29T00:36:20.896Z,97.40
2022-12-29T00:39:11.160Z,97.40
2022-12-29T00:41:57.329Z,97.40
2022-12-29T00:44:25.588Z,97.40
2022-12-29T00:46:55.268Z,97.40
2022-12-29T00:49:31.480Z,97.30
2022-12-29T00:52:03.023Z,97.30
2022-12-29T00:54:33.494Z,97.20
2022-12-29T00:57:03.020Z,97.00
2022-12-29T00:59:32.522Z,97.10
2022-12-29T01:02:02.459Z,96.90
2022-12-29T01:04:30.983Z,96.80
2022-12-29T01:06:59.341Z,96.80
2022-12-29T01:09:45.146Z,96.80
2022-12-29T01:12:14.254Z,96.80
2022-12-29T01:14:43.118Z,96.60
2022-12-29T01:17:12.610Z,96.70
2022-12-29T01:19:41.684Z,97.00
2022-12-29T01:22:09.945Z,96.90
2022-12-29T01:24:38.152Z,97.00
2022-12-29T01:27:06.318Z,97.00
2022-12-29T01:29:35.400Z,97.00
2022-12-29T01:32:03.787Z,97.10
2022-12-29T01:34:33.414Z,97.00
2022-12-29T01:37:02.505Z,97.20
2022-12-29T01:39:30.695Z,97.00
2022-12-29T01:41:58.962Z,96.90
2022-12-29T01:44:51.837Z,97.20
2022-12-29T01:47:29.022Z,97.20
2022-12-29T01:50:04.787Z,97.10
2022-12-29T01:52:36.523Z,97.30
2022-12-29T01:55:07.707Z,97.20
2022-12-29T01:57:40.252Z,97.00
2022-12-29T02:00:12.247Z,97.30
2022-12-29T02:02:47.656Z,97.30
2022-12-29T02:05:26.323Z,97.10
2022-12-29T02:07:55.375Z,97.20
2022-12-29T02:10:27.042Z,97.00
2022-12-29T02:12:55.975Z,96.70
2022-12-29T02:15:37.880Z,96.70
2022-12-29T02:18:21.448Z,96.50
2022-12-29T02:21:41.535Z,96.50
2022-12-29T02:24:52.880Z,96.40
2022-12-29T02:27:42.907Z,96.20
2022-12-29T02:30:33.628Z,96.50
2022-12-29T02:33:13.249Z,96.50
2022-12-29T02:35:53.135Z,96.30
2022-12-29T02:38:37.203Z,96.10
2022-12-29T02:41:15.273Z,96.30
2022-12-29T02:43:52.974Z,96.20
2022-12-29T02:46:30.143Z,96.20
2022-12-29T02:49:08.852Z,96.00
2022-12-29T02:51:44.544Z,96.30
2022-12-29T02:54:30.781Z,96.10
2022-12-29T02:56:59.068Z,95.80
2022-12-29T02:59:27.375Z,95.80
2022-12-29T03:02:19.326Z,95.80
2022-12-29T03:05:17.065Z,95.90
2022-12-29T03:07:57.345Z,95.70
2022-12-29T03:10:46.861Z,95.80
2022-12-29T03:13:43.667Z,95.90
2022-12-29T03:16:22.580Z,95.70
2022-12-29T03:18:59.222Z,95.60
2022-12-29T03:21:52.915Z,95.80
2022-12-29T03:24:28.551Z,95.70
2022-12-29T03:27:03.891Z,95.90
2022-12-29T03:29:42.900Z,96.20
2022-12-29T03:32:13.886Z,96.00
2022-12-29T03:34:44.375Z,95.90
2022-12-29T03:37:16.938Z,96.00
2022-12-29T03:39:48.088Z,96.10
2022-12-29T03:42:21.474Z,96.00
2022-12-29T03:44:50.222Z,96.20
2022-12-29T03:47:20.238Z,96.10
2022-12-29T03:49:50.909Z,96.20
2022-12-29T03:52:20.086Z,96.00
2022-12-29T03:54:49.323Z,96.40
2022-12-29T03:57:17.969Z,96.10
2022-12-29T04:00:02.745Z,96.20
2022-12-29T04:02:32.573Z,96.30
2022-12-29T04:05:02.425Z,96.30
2022-12-29T04:07:34.237Z,96.50
2022-12-29T04:10:05.184Z,96.50
2022-12-29T04:12:36.322Z,96.70
2022-12-29T04:15:05.103Z,96.70
2022-12-29T04:17:34.627Z,96.70
2022-12-29T04:20:24.205Z,97.10
2022-12-29T04:23:01.915Z,97.20
2022-12-29T04:25:30.675Z,97.40
2022-12-29T04:27:59.190Z,97.40
2022-12-29T04:30:53.699Z,97.40
2022-12-29T04:33:25.280Z,97.40
2022-12-29T04:35:56.562Z,97.40
2022-12-29T04:38:26.469Z,97.40
2022-12-29T04:40:55.802Z,97.40
2022-12-29T04:43:25.645Z,97.40
2022-12-29T04:46:12.493Z,97.40
2022-12-29T04:48:50.950Z,97.40
2022-12-29T04:51:33.719Z,97.40
2022-12-29T04:54:02.015Z,97.40
2022-12-29T04:56:31.387Z,97.40
2022-12-29T04:58:59.743Z,97.40
2022-12-29T05:01:29.136Z,97.40
2022-12-29T05:03:57.577Z,97.40
2022-12-29T05:06:25.955Z,97.40
2022-12-29T05:08:55.589Z,97.40
2022-12-29T05:11:23.846Z,97.40
2022-12-29T05:13:52.853Z,97.40
2022-12-29T05:16:21.177Z,97.40
2022-12-29T05:18:50.068Z,97.40
2022-12-29T05:21:18.603Z,97.40
2022-12-29T05:23:46.737Z,97.40
2022-12-29T05:26:18.145Z,97.40
2022-12-29T05:29:16.449Z,97.40
2022-12-29T05:31:46.945Z,97.40
2022-12-29T05:34:15.423Z,97.40
2022-12-29T05:36:43.754Z,97.40
2022-12-29T05:39:13.198Z,97.40
2022-12-29T05:41:42.852Z,97.40
2022-12-29T05:44:53.059Z,97.40
2022-12-29T05:47:47.391Z,97.40
2022-12-29T05:50:36.778Z,97.40
2022-12-29T05:53:45.030Z,97.40
2022-12-29T05:56:13.342Z,97.40
2022-12-29T05:58:43.886Z,97.40
2022-12-29T06:01:12.718Z,97.40
2022-12-29T06:03:47.766Z,97.40
2022-12-29T06:06:17.316Z,97.40
2022-12-29T06:08:45.814Z,97.40
2022-12-29T06:11:15.327Z,97.40
2022-12-29T06:13:52.302Z,97.40
2022-12-29T06:16:20.813Z,97.40
2022-12-29T06:18:54.486Z,97.40
2022-12-29T06:21:23.827Z,97.40
2022-12-29T06:23:52.033Z,97.40
2022-12-29T06:26:20.370Z,97.40
2022-12-29T06:28:51.377Z,97.40
2022-12-29T06:31:19.629Z,97.40
2022-12-29T06:33:50.058Z,97.40
2022-12-29T06:36:18.755Z,97.40
2022-12-29T06:38:47.180Z,97.40
2022-12-29T06:41:15.355Z,97.40
2022-12-29T06:44:03.408Z,97.40
2022-12-29T06:46:50.665Z,97.40
2022-12-29T06:49:21.699Z,97.40
2022-12-29T06:51:49.971Z,97.40
2022-12-29T06:54:18.160Z,97.40
2022-12-29T06:56:46.342Z,97.40
2022-12-29T06:59:15.998Z,97.40
2022-12-29T07:01:45.787Z,97.40
2022-12-29T07:04:14.026Z,97.40
2022-12-29T07:06:42.426Z,97.40
2022-12-29T07:09:11.339Z,97.40
2022-12-29T07:11:39.600Z,97.40
2022-12-29T07:14:07.965Z,97.40
2022-12-29T07:16:38.004Z,97.40
2022-12-29T07:19:06.900Z,97.40
2022-12-29T07:21:35.402Z,97.40
2022-12-29T07:24:03.642Z,97.40
2022-12-29T07:26:36.289Z,97.40
2022-12-29T07:29:04.883Z,97.40
2022-12-29T07:31:33.351Z,97.40
2022-12-29T07:34:23.973Z,97.40
2022-12-29T07:36:55.157Z,97.40
2022-12-29T07:39:23.292Z,97.40
2022-12-29T07:41:51.469Z,97.40
2022-12-29T07:44:21.831Z,97.40
2022-12-29T07:47:08.904Z,97.40
2022-12-29T07:49:38.489Z,97.40
2022-12-29T07:52:06.838Z,97.40
2022-12-29T07:54:35.070Z,97.40
2022-12-29T07:57:03.281Z,97.40
2022-12-29T07:59:31.456Z,97.40
2022-12-29T08:01:59.678Z,97.40
2022-12-29T08:04:27.972Z,97.40
2022-12-29T08:06:57.483Z,97.40
2022-12-29T08:09:25.734Z,97.40
2022-12-29T08:11:53.971Z,97.40
2022-12-29T08:14:22.405Z,97.40
2022-12-29T08:16:51.370Z,97.20
2022-12-29T08:19:19.582Z,96.90
2022-12-29T08:21:47.948Z,97.20
2022-12-29T08:24:17.517Z,96.90
2022-12-29T08:26:45.680Z,97.00
2022-12-29T08:29:13.905Z,97.00
2022-12-29T08:31:42.358Z,97.10
2022-12-29T08:34:10.594Z,96.90
2022-12-29T08:36:38.800Z,96.80
2022-12-29T08:39:07.201Z,96.90
2022-12-29T08:41:36.873Z,96.90
2022-12-29T08:44:05.324Z,96.80
2022-12-29T08:46:33.647Z,96.90
2022-12-29T08:49:01.876Z,96.50
2022-12-29T08:51:30.034Z,97.00
2022-12-29T08:53:58.280Z,96.70
2022-12-29T08:56:26.698Z,96.70
2022-12-29T08:58:59.447Z,97.10
2022-12-29T09:01:31.478Z,96.90
2022-12-29T09:04:17.035Z,96.70
2022-12-29T09:06:47.093Z,96.70
2022-12-29T09:09:16.220Z,96.70
2022-12-29T09:11:44.860Z,96.60
2022-12-29T09:14:15.581Z,96.10
2022-12-29T09:17:01.523Z,96.10
2022-12-29T09:19:29.721Z,95.90
2022-12-29T09:21:58.145Z,96.10
2022-12-29T09:24:26.297Z,96.00
2022-12-29T09:26:54.658Z,96.10
2022-12-29T09:29:24.384Z,96.30
2022-12-29T09:31:52.679Z,96.40
2022-12-29T09:34:21.016Z,96.50
2022-12-29T09:36:49.232Z,96.50
2022-12-29T09:39:19.596Z,96.30
2022-12-29T09:41:55.995Z,96.40
2022-12-29T09:44:32.691Z,96.70
2022-12-29T09:47:02.428Z,96.40
2022-12-29T09:49:43.330Z,96.00
2022-12-29T09:52:17.800Z,95.90
2022-12-29T09:55:00.552Z,96.10
2022-12-29T09:57:37.651Z,96.20
2022-12-29T10:00:15.199Z,96.00
2022-12-29T10:02:47.465Z,96.20
2022-12-29T10:05:29.834Z,96.20
2022-12-29T10:08:15.757Z,96.10
2022-12-29T10:10:56.076Z,96.10
2022-12-29T10:13:35.530Z,96.00
2022-12-29T10:16:12.104Z,95.60
2022-12-29T10:19:01.534Z,95.90
2022-12-29T10:21:47.256Z,95.80
2022-12-29T10:24:15.610Z,95.80
2022-12-29T10:26:45.983Z,96.10
2022-12-29T10:29:21.162Z,96.20
2022-12-29T10:31:57.168Z,96.30
2022-12-29T10:34:30.808Z,96.70
2022-12-29T10:37:05.996Z,97.30
2022-12-29T10:39:42.249Z,97.40
2022-12-29T10:42:17.319Z,97.20
2022-12-29T10:44:45.503Z,97.00
2022-12-29T10:47:20.395Z,96.90
2022-12-29T10:49:50.596Z,97.00
2022-12-29T10:52:21.306Z,97.20
2022-12-29T10:54:54.855Z,97.00
2022-12-29T10:57:29.483Z,97.30
2022-12-29T10:59:57.712Z,97.40
2022-12-29T11:02:59.659Z,97.40
2022-12-29T11:05:34.563Z,97.40
2022-12-29T11:08:07.031Z,97.40
2022-12-29T11:10:41.821Z,97.40
2022-12-29T11:13:17.505Z,97.40
2022-12-29T11:15:48.360Z,97.40
2022-12-29T11:18:26.774Z,97.40
2022-12-29T11:20:57.029Z,97.40
2022-12-29T11:23:35.051Z,97.40
2022-12-29T11:26:23.368Z,97.40
2022-12-29T11:29:22.589Z,97.40
2022-12-29T11:31:52.821Z,97.40
2022-12-29T11:34:26.196Z,97.40
2022-12-29T11:37:02.186Z,97.40
2022-12-29T11:39:40.925Z,97.40
2022-12-29T11:42:17.853Z,97.40
2022-12-29T11:44:48.673Z,97.40
2022-12-29T11:47:29.102Z,97.40
2022-12-29T11:50:03.132Z,97.40
2022-12-29T11:52:36.064Z,97.40
2022-12-29T11:55:08.654Z,97.40
2022-12-29T11:57:37.387Z,97.40
2022-12-29T12:00:18.508Z,97.40
2022-12-29T12:02:57.717Z,97.40
2022-12-29T12:05:37.467Z,97.40
2022-12-29T12:08:20.347Z,97.40
2022-12-29T12:10:56.290Z,97.40
2022-12-29T12:13:32.583Z,97.40
2022-12-29T12:16:08.561Z,97.40
2022-12-29T12:18:44.122Z,97.40
2022-12-29T12:21:23.070Z,97.40
2022-12-29T12:24:31.124Z,97.40
2022-12-29T12:27:04.901Z,97.40
2022-12-29T12:29:41.996Z,97.40
2022-12-29T12:32:17.540Z,97.40
2022-12-29T12:34:48.420Z,97.40
2022-12-29T12:37:57.869Z,97.40
2022-12-29T12:40:46.254Z,97.40
2022-12-29T12:43:39.293Z,97.40
2022-12-29T12:46:43.336Z,97.40
2022-12-29T12:50:04.293Z,97.40
2022-12-29T12:52:43.175Z,97.40
2022-12-29T12:55:37.592Z,97.40
2022-12-29T12:58:16.426Z,97.40
2022-12-29T13:00:58.263Z,97.40
2022-12-29T13:03:44.415Z,97.40
2022-12-29T13:06:26.254Z,97.40
2022-12-29T13:09:27.909Z,97.40
2022-12-29T13:12:12.966Z,97.40
2022-12-29T13:14:54.984Z,97.40
2022-12-29T13:17:30.951Z,97.40
2022-12-29T13:20:11.149Z,97.40
2022-12-29T13:22:51.051Z,97.40
2022-12-29T13:25:32.605Z,97.40
2022-12-29T13:28:08.901Z,97.40
2022-12-29T13:30:44.245Z,97.40
2022-12-29T13:33:24.302Z,97.40
2022-12-29T13:36:01.035Z,97.40
2022-12-29T13:38:36.861Z,97.40
2022-12-29T13:41:10.402Z,97.40
2022-12-29T13:43:44.563Z,97.40
2022-12-29T13:46:17.816Z,97.40
2022-12-29T13:48:54.199Z,97.40
2022-12-29T13:51:28.575Z,97.40
2022-12-29T13:54:22.217Z,97.40
2022-12-29T13:57:00.961Z,97.40
2022-12-29T13:59:42.810Z,97.40
2022-12-29T14:02:24.308Z,97.40
2022-12-29T14:05:02.052Z,97.40
2022-12-29T14:07:31.457Z,97.40
2022-12-29T14:10:00.032Z,97.40
2022-12-29T14:12:34.200Z,97.40
2022-12-29T14:15:23.449Z,97.40
2022-12-29T14:18:26.212Z,97.40
2022-12-29T14:21:00.215Z,97.40
2022-12-29T14:23:37.876Z,97.40
2022-12-29T14:26:16.094Z,97.40
2022-12-29T14:28:47.022Z,97.40
2022-12-29T14:31:42.174Z,97.40
2022-12-29T14:34:31.589Z,97.40
2022-12-29T14:37:02.150Z,97.40
2022-12-29T14:39:37.476Z,97.40
2022-12-29T14:42:09.439Z,97.40
2022-12-29T14:44:51.482Z,97.40
2022-12-29T14:47:28.921Z,97.40
2022-12-29T14:49:57.402Z,97.40
2022-12-29T14:52:28.203Z,97.40
2022-12-29T14:55:00.034Z,97.40
2022-12-29T14:57:36.641Z,97.40
2022-12-29T15:00:23.587Z,97.40
2022-12-29T15:03:04.866Z,97.40
2022-12-29T15:05:39.833Z,97.40
2022-12-29T15:08:09.360Z,97.40
2022-12-29T15:10:43.677Z,97.40
2022-12-29T15:13:20.005Z,97.40
2022-12-29T15:15:48.662Z,97.40
2022-12-29T15:18:27.156Z,97.40
2022-12-29T15:20:59.226Z,97.40
2022-12-29T15:23:28.146Z,97.40
2022-12-29T15:25:58.643Z,97.40
2022-12-29T15:28:28.759Z,97.40
2022-12-29T15:31:03.661Z,97.40
2022-12-29T15:33:33.180Z,97.40
2022-12-29T15:36:07.981Z,97.40
2022-12-29T15:38:40.480Z,97.40
2022-12-29T15:41:28.933Z,97.40
2022-12-29T15:44:12.532Z,97.40
2022-12-29T15:46:43.045Z,97.40
2022-12-29T15:49:16.350Z,97.40
2022-12-29T15:51:45.103Z,97.40
2022-12-29T15:54:19.511Z,97.40
2022-12-29T15:56:48.462Z,97.40
2022-12-29T15:59:27.181Z,97.40
2022-12-29T16:01:57.083Z,97.40
2022-12-29T16:04:48.460Z,97.40
2022-12-29T16:07:35.794Z,97.40
2022-12-29T16:10:23.697Z,97.40
2022-12-29T16:12:52.027Z,97.40
2022-12-29T16:15:21.243Z,97.40
2022-12-29T16:17:52.640Z,97.40
2022-12-29T16:20:29.740Z,97.40
2022-12-29T16:22:59.970Z,97.40
2022-12-29T16:25:32.636Z,97.40
2022-12-29T16:28:01.734Z,97.40
2022-12-29T16:30:34.119Z,97.40
2022-12-29T16:33:04.862Z,97.40
2022-12-29T16:35:47.467Z,97.40
2022-12-29T16:38:17.759Z,97.40
2022-12-29T16:40:53.836Z,97.40
2022-12-29T16:43:25.849Z,97.40
2022-12-29T16:46:21.260Z,97.40
2022-12-29T16:48:53.380Z,97.40
2022-12-29T16:51:33.001Z,97.40
2022-12-29T16:54:02.072Z,97.40
2022-12-29T16:56:34.127Z,97.40
2022-12-29T16:59:06.741Z,97.40
2022-12-29T17:01:38.520Z,97.40
2022-12-29T17:04:10.268Z,97.40
2022-12-29T17:06:40.565Z,97.40
2022-12-29T17:09:20.275Z,97.40
2022-12-29T17:12:05.030Z,97.40
2022-12-29T17:14:43.925Z,97.40
2022-12-29T17:17:18.307Z,97.40
2022-12-29T17:19:51.370Z,97.40
2022-12-29T17:22:26.282Z,97.40
2022-12-29T17:24:55.894Z,97.40
2022-12-29T17:27:32.750Z,97.40
2022-12-29T17:30:04.991Z,97.40
2022-12-29T17:32:34.291Z,97.40
2022-12-29T17:35:02.497Z,97.40
2022-12-29T17:37:40.226Z,97.40
2022-12-29T17:40:14.809Z,97.40
2022-12-29T17:42:46.216Z,97.40
2022-12-29T17:45:22.193Z,97.40
2022-12-29T17:47:50.823Z,97.40
2022-12-29T17:50:22.558Z,97.40
2022-12-29T17:53:00.732Z,97.40
2022-12-29T17:55:37.171Z,97.40
2022-12-29T17:58:19.161Z,97.40
2022-12-29T18:00:48.676Z,97.40
2022-12-29T18:03:18.780Z,97.40
2022-12-29T18:05:47.640Z,97.40
2022-12-29T18:08:17.463Z,97.40
2022-12-29T18:10:45.735Z,97.40
2022-12-29T18:13:23.071Z,97.40
2022-12-29T18:15:51.714Z,97.40
2022-12-29T18:18:23.413Z,97.40
2022-12-29T18:20:56.159Z,97.40
2022-12-29T18:23:32.172Z,97.40
2022-12-29T18:26:03.499Z,97.40
2022-12-29T18:28:37.064Z,97.40
2022-12-29T18:31:05.300Z,97.40
2022-12-29T18:33:33.569Z,97.40
2022-12-29T18:36:04.518Z,97.40
2022-12-29T18:38:36.856Z,97.40
2022-12-29T18:41:05.691Z,97.40
2022-12-29T18:43:33.920Z,97.40
2022-12-29T18:46:04.660Z,97.40
2022-12-29T18:48:38.037Z,97.40
2022-12-29T18:51:16.543Z,97.40
2022-12-29T18:53:46.883Z,97.40
2022-12-29T18:56:15.732Z,97.40
2022-12-29T18:58:43.940Z,97.40
2022-12-29T19:01:26.974Z,97.40
2022-12-29T19:03:59.314Z,97.40
2022-12-29T19:06:27.822Z,97.40
2022-12-29T19:08:57.358Z,97.40
2022-12-29T19:11:26.048Z,97.40
2022-12-29T19:13:54.338Z,97.40
2022-12-29T19:16:26.345Z,97.40
2022-12-29T19:19:10.224Z,97.40
2022-12-29T19:21:38.865Z,97.40
2022-12-29T19:24:08.678Z,97.40
2022-12-29T19:26:41.885Z,97.40
2022-12-29T19:29:15.711Z,97.40
2022-12-29T19:31:44.050Z,97.40
2022-12-29T19:34:15.806Z,97.40
2022-12-29T19:36:44.997Z,97.40
2022-12-29T19:39:14.708Z,97.40
2022-12-29T19:41:43.008Z,97.40
2022-12-29T19:44:11.340Z,97.40
2022-12-29T19:46:39.635Z,97.40
2022-12-29T19:49:08.428Z,97.40
2022-12-29T19:51:38.121Z,97.40
2022-12-29T19:54:06.413Z,97.40
2022-12-29T19:56:36.014Z,97.40
2022-12-29T19:59:04.286Z,97.40
2022-12-29T20:01:32.596Z,97.40
2022-12-29T20:04:02.851Z,97.40
2022-12-29T20:06:31.784Z,97.40
2022-12-29T20:09:02.538Z,97.40
2022-12-29T20:11:30.802Z,97.40
2022-12-29T20:14:00.577Z,97.40
2022-12-29T20:16:29.677Z,97.40
2022-12-29T20:18:57.946Z,97.40
2022-12-29T20:21:26.779Z,97.40
2022-12-29T20:23:56.319Z,97.40
2022-12-29T20:26:27.759Z,97.40
2022-12-29T20:28:57.775Z,97.40
2022-12-29T20:31:30.697Z,97.40
2022-12-29T20:33:59.307Z,97.40
2022-12-29T20:36:30.933Z,97.40
2022-12-29T20:39:02.005Z,97.40
2022-12-29T20:41:30.982Z,97.40
2022-12-29T20:44:01.765Z,97.40
2022-12-29T20:46:36.674Z,97.40
2022-12-29T20:49:09.555Z,97.40
2022-12-29T20:52:04.338Z,97.40
2022-12-29T20:54:26.127Z,97.40
2022-12-29T20:56:54.492Z,97.40
2022-12-29T20:59:27.663Z,97.40
2022-12-29T21:01:58.514Z,97.40
2022-12-29T21:04:27.027Z,97.40
2022-12-29T21:06:57.511Z,97.40
2022-12-29T21:09:25.703Z,97.40
2022-12-29T21:11:53.909Z,97.40
2022-12-29T21:14:22.179Z,97.40
2022-12-29T21:16:50.548Z,97.40
2022-12-29T21:19:20.153Z,97.40
2022-12-29T21:21:48.437Z,97.40
2022-12-29T21:24:16.710Z,97.40
2022-12-29T21:26:48.554Z,97.40
2022-12-29T21:29:16.853Z,97.40
2022-12-29T21:31:45.849Z,97.40
2022-12-29T21:34:14.254Z,97.40
2022-12-29T21:36:44.035Z,97.40
2022-12-29T21:39:12.835Z,97.40
2022-12-29T21:41:41.080Z,97.40
2022-12-29T21:44:26.738Z,97.40
2022-12-29T21:46:55.031Z,97.40
2022-12-29T21:49:25.228Z,97.40
2022-12-29T21:51:54.840Z,97.40
2022-12-29T21:54:43.535Z,97.40
2022-12-29T21:57:34.108Z,97.40
2022-12-29T22:00:20.073Z,97.40
2022-12-29T22:03:05.866Z,97.40
2022-12-29T22:05:52.035Z,97.40
2022-12-29T22:08:40.965Z,97.40
2022-12-29T22:11:27.653Z,97.40
2022-12-29T22:13:58.012Z,97.40
2022-12-29T22:16:27.156Z,97.40
2022-12-29T22:18:55.377Z,97.40
2022-12-29T22:21:23.545Z,97.40
2022-12-29T22:23:53.092Z,97.40
2022-12-29T22:26:23.584Z,97.40
2022-12-29T22:28:52.430Z,97.40
2022-12-29T22:31:27.703Z,97.40
2022-12-29T22:33:57.742Z,97.40
2022-12-29T22:36:27.386Z,97.40
2022-12-29T22:38:57.181Z,97.40
2022-12-29T22:41:26.121Z,97.40
2022-12-29T22:43:54.324Z,97.40
2022-12-29T22:46:22.863Z,97.40
2022-12-29T22:48:51.085Z,97.40
2022-12-29T22:51:19.625Z,97.40
2022-12-29T22:53:50.278Z,97.40
2022-12-29T22:56:20.478Z,97.40
2022-12-29T22:58:51.304Z,97.40
2022-12-29T23:01:22.610Z,97.40
2022-12-29T23:03:51.300Z,97.40
2022-12-29T23:06:22.358Z,97.40
2022-12-29T23:08:50.707Z,97.40
2022-12-29T23:11:20.237Z,97.40
2022-12-29T23:13:50.054Z,97.40
2022-12-29T23:16:23.278Z,97.40
2022-12-29T23:18:53.276Z,97.40
2022-12-29T23:21:22.378Z,97.40
2022-12-29T23:23:57.308Z,97.40
2022-12-29T23:26:30.568Z,97.40
2022-12-29T23:29:03.523Z,97.40
2022-12-29T23:31:32.848Z,97.40
2022-12-29T23:34:02.439Z,97.40
2022-12-29T23:36:32.024Z,97.40
2022-12-29T23:39:00.681Z,97.40
2022-12-29T23:41:30.450Z,97.40
2022-12-29T23:43:58.977Z,97.40
2022-12-29T23:46:31.079Z,97.40
2022-12-29T23:48:59.949Z,97.40
2022-12-29T23:51:28.186Z,97.40
2022-12-29T23:53:56.329Z,97.40
2022-12-29T23:56:24.897Z,97.40
2022-12-29T23:58:55.198Z,97.40
